sensor_id;sensor_type;location;lat;lon;timestamp;pressure;altitude;pressure_sealevel;temperature;humidity
64544;BME280;50936;51.660;5.616;2023-04-06T00:01:01;101435.03;;;4.39;63.79
64544;BME280;50936;51.660;5.616;2023-04-06T00:03:28;101435.94;;;4.40;64.11
64544;BME280;50936;51.660;5.616;2023-04-06T00:05:55;101435.94;;;4.40;64.11
64544;BME280;50936;51.660;5.616;2023-04-06T00:08:22;101431.50;;;4.39;64.11
64544;BME280;50936;51.660;5.616;2023-04-06T00:10:50;101436.84;;;4.39;63.64
64544;BME280;50936;51.660;5.616;2023-04-06T00:13:17;101429.69;;;4.39;64.16
64544;BME280;50936;51.660;5.616;2023-04-06T00:15:44;101426.16;;;4.39;64.37
64544;BME280;50936;51.660;5.616;2023-04-06T00:18:11;101424.41;;;4.38;64.45
64544;BME280;50936;51.660;5.616;2023-04-06T00:20:38;101419.06;;;4.38;64.20
64544;BME280;50936;51.660;5.616;2023-04-06T00:23:05;101422.66;;;4.37;64.13
64544;BME280;50936;51.660;5.616;2023-04-06T00:25:32;101420.88;;;4.36;64.15
64544;BME280;50936;51.660;5.616;2023-04-06T00:27:59;101416.41;;;4.38;63.75
64544;BME280;50936;51.660;5.616;2023-04-06T00:30:26;101417.09;;;4.43;63.70
64544;BME280;50936;51.660;5.616;2023-04-06T00:32:53;101409.88;;;4.45;63.49
64544;BME280;50936;51.660;5.616;2023-04-06T00:35:20;101406.38;;;4.43;64.11
64544;BME280;50936;51.660;5.616;2023-04-06T00:37:47;101407.44;;;4.39;64.46
64544;BME280;50936;51.660;5.616;2023-04-06T00:40:17;101410.19;;;4.36;64.65
64544;BME280;50936;51.660;5.616;2023-04-06T00:42:44;101406.72;;;4.34;64.20
64544;BME280;50936;51.660;5.616;2023-04-06T00:45:11;101401.34;;;4.34;64.58
64544;BME280;50936;51.660;5.616;2023-04-06T00:47:38;101403.34;;;4.29;64.36
64544;BME280;50936;51.660;5.616;2023-04-06T00:50:06;101398.19;;;4.22;65.57
64544;BME280;50936;51.660;5.616;2023-04-06T00:52:34;101394.78;;;4.17;65.55
64544;BME280;50936;51.660;5.616;2023-04-06T00:55:04;101395.88;;;4.12;65.75
64544;BME280;50936;51.660;5.616;2023-04-06T00:57:36;101393.38;;;4.07;66.65
64544;BME280;50936;51.660;5.616;2023-04-06T01:00:04;101384.63;;;4.02;66.20
64544;BME280;50936;51.660;5.616;2023-04-06T01:02:33;101390.06;;;3.99;66.89
64544;BME280;50936;51.660;5.616;2023-04-06T01:05:01;101385.66;;;3.98;67.40
64544;BME280;50936;51.660;5.616;2023-04-06T01:07:36;101390.06;;;3.99;67.05
64544;BME280;50936;51.660;5.616;2023-04-06T01:10:27;101384.72;;;3.99;67.79
64544;BME280;50936;51.660;5.616;2023-04-06T01:13:13;101372.44;;;3.93;67.73
64544;BME280;50936;51.660;5.616;2023-04-06T01:16:09;101372.59;;;3.89;67.84
64544;BME280;50936;51.660;5.616;2023-04-06T01:18:49;101369.94;;;3.89;67.87
64544;BME280;50936;51.660;5.616;2023-04-06T01:21:21;101368.03;;;3.92;67.78
64544;BME280;50936;51.660;5.616;2023-04-06T01:24:09;101363.59;;;3.91;68.06
64544;BME280;50936;51.660;5.616;2023-04-06T01:26:56;101363.47;;;3.96;67.59
64544;BME280;50936;51.660;5.616;2023-04-06T01:29:26;101360.72;;;3.97;67.25
64544;BME280;50936;51.660;5.616;2023-04-06T01:31:54;101366.94;;;3.98;67.67
64544;BME280;50936;51.660;5.616;2023-04-06T01:34:22;101359.75;;;4.00;67.65
64544;BME280;50936;51.660;5.616;2023-04-06T01:36:49;101363.19;;;4.03;67.47
64544;BME280;50936;51.660;5.616;2023-04-06T01:39:25;101352.44;;;4.05;67.50
64544;BME280;50936;51.660;5.616;2023-04-06T01:41:52;101354.19;;;4.06;67.23
64544;BME280;50936;51.660;5.616;2023-04-06T01:44:20;101349.56;;;4.11;67.23
64544;BME280;50936;51.660;5.616;2023-04-06T01:46:55;101345.03;;;4.13;67.03
64544;BME280;50936;51.660;5.616;2023-04-06T01:49:23;101347.56;;;4.18;67.17
64544;BME280;50936;51.660;5.616;2023-04-06T01:51:53;101343.28;;;4.12;67.57
64544;BME280;50936;51.660;5.616;2023-04-06T01:54:21;101340.78;;;4.08;68.02
64544;BME280;50936;51.660;5.616;2023-04-06T01:56:54;101335.38;;;4.09;67.90
64544;BME280;50936;51.660;5.616;2023-04-06T01:59:47;101332.69;;;4.09;68.56
64544;BME280;50936;51.660;5.616;2023-04-06T02:02:22;101329.31;;;4.04;68.82
64544;BME280;50936;51.660;5.616;2023-04-06T02:04:58;101328.44;;;4.03;68.39
64544;BME280;50936;51.660;5.616;2023-04-06T02:07:26;101323.59;;;4.15;68.39
64544;BME280;50936;51.660;5.616;2023-04-06T02:09:55;101316.38;;;4.17;68.48
64544;BME280;50936;51.660;5.616;2023-04-06T02:12:34;101308.28;;;4.20;68.67
64544;BME280;50936;51.660;5.616;2023-04-06T02:15:02;101314.56;;;4.17;68.39
64544;BME280;50936;51.660;5.616;2023-04-06T02:17:29;101306.34;;;4.23;68.00
64544;BME280;50936;51.660;5.616;2023-04-06T02:19:56;101301.94;;;4.22;68.14
64544;BME280;50936;51.660;5.616;2023-04-06T02:22:23;101304.78;;;4.18;68.39
64544;BME280;50936;51.660;5.616;2023-04-06T02:24:50;101302.16;;;4.16;68.61
64544;BME280;50936;51.660;5.616;2023-04-06T02:27:17;101297.56;;;4.20;68.83
64544;BME280;50936;51.660;5.616;2023-04-06T02:29:46;101302.59;;;4.29;68.15
64544;BME280;50936;51.660;5.616;2023-04-06T02:32:16;101299.97;;;4.28;68.32
64544;BME280;50936;51.660;5.616;2023-04-06T02:34:43;101294.63;;;4.28;68.79
64544;BME280;50936;51.660;5.616;2023-04-06T02:37:10;101293.81;;;4.26;68.58
64544;BME280;50936;51.660;5.616;2023-04-06T02:39:38;101288.28;;;4.30;68.90
64544;BME280;50936;51.660;5.616;2023-04-06T02:42:07;101285.44;;;4.35;68.68
64544;BME280;50936;51.660;5.616;2023-04-06T02:44:35;101284.72;;;4.30;69.02
64544;BME280;50936;51.660;5.616;2023-04-06T02:47:02;101283.09;;;4.26;69.47
64544;BME280;50936;51.660;5.616;2023-04-06T02:49:29;101274.22;;;4.25;69.85
64544;BME280;50936;51.660;5.616;2023-04-06T02:51:58;101277.72;;;4.27;69.89
64544;BME280;50936;51.660;5.616;2023-04-06T02:54:29;101276.63;;;4.33;69.83
64544;BME280;50936;51.660;5.616;2023-04-06T02:56:56;101275.84;;;4.29;69.99
64544;BME280;50936;51.660;5.616;2023-04-06T02:59:31;101265.78;;;4.36;70.23
64544;BME280;50936;51.660;5.616;2023-04-06T03:02:13;101263.81;;;4.41;70.11
64544;BME280;50936;51.660;5.616;2023-04-06T03:04:42;101262.84;;;4.43;70.00
64544;BME280;50936;51.660;5.616;2023-04-06T03:07:19;101261.84;;;4.46;70.10
64544;BME280;50936;51.660;5.616;2023-04-06T03:09:49;101263.72;;;4.44;69.90
64544;BME280;50936;51.660;5.616;2023-04-06T03:12:17;101258.38;;;4.44;70.47
64544;BME280;50936;51.660;5.616;2023-04-06T03:15:14;101268.00;;;4.48;70.32
64544;BME280;50936;51.660;5.616;2023-04-06T03:17:45;101254.88;;;4.42;71.45
64544;BME280;50936;51.660;5.616;2023-04-06T03:20:30;101258.59;;;4.38;71.05
64544;BME280;50936;51.660;5.616;2023-04-06T03:22:58;101255.94;;;4.38;71.14
64544;BME280;50936;51.660;5.616;2023-04-06T03:25:29;101255.75;;;4.42;71.33
64544;BME280;50936;51.660;5.616;2023-04-06T03:28:02;101261.84;;;4.46;71.30
64544;BME280;50936;51.660;5.616;2023-04-06T03:30:34;101254.53;;;4.51;71.38
64544;BME280;50936;51.660;5.616;2023-04-06T03:33:01;101254.63;;;4.48;71.70
64544;BME280;50936;51.660;5.616;2023-04-06T03:35:32;101252.16;;;4.43;71.62
64544;BME280;50936;51.660;5.616;2023-04-06T03:37:59;101252.19;;;4.42;72.05
64544;BME280;50936;51.660;5.616;2023-04-06T03:40:27;101251.38;;;4.40;73.89
64544;BME280;50936;51.660;5.616;2023-04-06T03:42:54;101248.81;;;4.37;73.35
64544;BME280;50936;51.660;5.616;2023-04-06T03:45:21;101245.09;;;4.41;72.98
64544;BME280;50936;51.660;5.616;2023-04-06T03:47:49;101238.94;;;4.39;73.02
64544;BME280;50936;51.660;5.616;2023-04-06T03:50:18;101242.66;;;4.35;74.45
64544;BME280;50936;51.660;5.616;2023-04-06T03:52:45;101236.38;;;4.36;74.73
64544;BME280;50936;51.660;5.616;2023-04-06T03:55:12;101234.69;;;4.33;74.47
64544;BME280;50936;51.660;5.616;2023-04-06T03:57:38;101233.81;;;4.33;74.40
64544;BME280;50936;51.660;5.616;2023-04-06T04:00:06;101233.94;;;4.30;75.52
64544;BME280;50936;51.660;5.616;2023-04-06T04:02:43;101239.16;;;4.33;75.06
64544;BME280;50936;51.660;5.616;2023-04-06T04:05:10;101240.13;;;4.30;75.62
64544;BME280;50936;51.660;5.616;2023-04-06T04:07:37;101239.38;;;4.27;75.82
64544;BME280;50936;51.660;5.616;2023-04-06T04:10:06;101241.13;;;4.28;75.38
64544;BME280;50936;51.660;5.616;2023-04-06T04:12:33;101244.72;;;4.27;75.78
64544;BME280;50936;51.660;5.616;2023-04-06T04:15:00;101246.59;;;4.24;76.11
64544;BME280;50936;51.660;5.616;2023-04-06T04:17:27;101243.81;;;4.28;76.48
64544;BME280;50936;51.660;5.616;2023-04-06T04:19:54;101241.25;;;4.24;76.72
64544;BME280;50936;51.660;5.616;2023-04-06T04:22:21;101239.63;;;4.20;77.44
64544;BME280;50936;51.660;5.616;2023-04-06T04:24:48;101237.75;;;4.22;77.45
64544;BME280;50936;51.660;5.616;2023-04-06T04:27:16;101240.44;;;4.22;77.76
64544;BME280;50936;51.660;5.616;2023-04-06T04:29:43;101241.38;;;4.21;78.50
64544;BME280;50936;51.660;5.616;2023-04-06T04:32:12;101234.28;;;4.20;79.25
64544;BME280;50936;51.660;5.616;2023-04-06T04:34:39;101245.97;;;4.18;78.64
64544;BME280;50936;51.660;5.616;2023-04-06T04:37:10;101243.16;;;4.21;78.93
64544;BME280;50936;51.660;5.616;2023-04-06T04:39:47;101239.63;;;4.20;79.75
64544;BME280;50936;51.660;5.616;2023-04-06T04:42:14;101238.00;;;4.16;80.13
64544;BME280;50936;51.660;5.616;2023-04-06T04:44:48;101242.63;;;4.11;80.32
64544;BME280;50936;51.660;5.616;2023-04-06T04:47:23;101241.91;;;4.06;81.77
64544;BME280;50936;51.660;5.616;2023-04-06T04:49:50;101234.94;;;4.02;82.18
64544;BME280;50936;51.660;5.616;2023-04-06T04:52:21;101244.88;;;3.98;82.05
64544;BME280;50936;51.660;5.616;2023-04-06T04:55:14;101241.34;;;3.98;82.27
64544;BME280;50936;51.660;5.616;2023-04-06T04:57:45;101229.81;;;3.96;81.94
64544;BME280;50936;51.660;5.616;2023-04-06T05:00:12;101234.31;;;3.94;82.65
64544;BME280;50936;51.660;5.616;2023-04-06T05:02:43;101231.56;;;3.97;82.90
64544;BME280;50936;51.660;5.616;2023-04-06T05:05:30;101230.75;;;3.95;83.35
64544;BME280;50936;51.660;5.616;2023-04-06T05:07:58;101233.41;;;3.95;82.86
64544;BME280;50936;51.660;5.616;2023-04-06T05:10:36;101235.22;;;3.94;84.26
64544;BME280;50936;51.660;5.616;2023-04-06T05:13:03;101236.13;;;3.93;83.79
64544;BME280;50936;51.660;5.616;2023-04-06T05:15:31;101235.84;;;4.01;83.40
64544;BME280;50936;51.660;5.616;2023-04-06T05:18:08;101235.59;;;4.09;83.53
64544;BME280;50936;51.660;5.616;2023-04-06T05:20:36;101238.19;;;4.10;83.58
64544;BME280;50936;51.660;5.616;2023-04-06T05:23:04;101232.75;;;4.13;84.35
64544;BME280;50936;51.660;5.616;2023-04-06T05:25:32;101231.78;;;4.16;83.70
64544;BME280;50936;51.660;5.616;2023-04-06T05:28:10;101233.16;;;4.26;83.43
64544;BME280;50936;51.660;5.616;2023-04-06T05:30:40;101231.25;;;4.30;83.76
64544;BME280;50936;51.660;5.616;2023-04-06T05:33:10;101232.06;;;4.32;84.08
64544;BME280;50936;51.660;5.616;2023-04-06T05:35:57;101230.34;;;4.31;83.75
64544;BME280;50936;51.660;5.616;2023-04-06T05:38:24;101223.94;;;4.35;84.09
64544;BME280;50936;51.660;5.616;2023-04-06T05:40:54;101223.00;;;4.36;84.48
64544;BME280;50936;51.660;5.616;2023-04-06T05:43:24;101227.53;;;4.34;84.61
64544;BME280;50936;51.660;5.616;2023-04-06T05:45:54;101225.81;;;4.33;85.03
64544;BME280;50936;51.660;5.616;2023-04-06T05:48:21;101219.66;;;4.31;84.90
64544;BME280;50936;51.660;5.616;2023-04-06T05:50:49;101223.13;;;4.33;85.37
64544;BME280;50936;51.660;5.616;2023-04-06T05:53:21;101220.50;;;4.31;85.64
64544;BME280;50936;51.660;5.616;2023-04-06T05:55:54;101225.00;;;4.31;85.26
64544;BME280;50936;51.660;5.616;2023-04-06T05:58:21;101224.66;;;4.40;85.75
64544;BME280;50936;51.660;5.616;2023-04-06T06:00:56;101219.16;;;4.43;84.89
64544;BME280;50936;51.660;5.616;2023-04-06T06:03:35;101224.06;;;4.55;84.59
64544;BME280;50936;51.660;5.616;2023-04-06T06:06:03;101218.97;;;4.71;84.00
64544;BME280;50936;51.660;5.616;2023-04-06T06:08:54;101216.69;;;4.84;83.42
64544;BME280;50936;51.660;5.616;2023-04-06T06:11:22;101222.66;;;4.91;83.78
64544;BME280;50936;51.660;5.616;2023-04-06T06:13:49;101222.59;;;4.92;83.36
64544;BME280;50936;51.660;5.616;2023-04-06T06:16:17;101220.63;;;4.97;82.93
64544;BME280;50936;51.660;5.616;2023-04-06T06:18:46;101220.50;;;5.00;83.58
64544;BME280;50936;51.660;5.616;2023-04-06T06:21:14;101222.50;;;4.95;83.10
64544;BME280;50936;51.660;5.616;2023-04-06T06:23:42;101224.91;;;5.01;83.60
64544;BME280;50936;51.660;5.616;2023-04-06T06:26:13;101219.34;;;5.08;83.47
64544;BME280;50936;51.660;5.616;2023-04-06T06:28:40;101218.25;;;5.12;83.68
64544;BME280;50936;51.660;5.616;2023-04-06T06:31:09;101223.50;;;5.15;83.30
64544;BME280;50936;51.660;5.616;2023-04-06T06:33:37;101216.13;;;5.20;83.09
64544;BME280;50936;51.660;5.616;2023-04-06T06:36:04;101226.72;;;5.23;82.77
64544;BME280;50936;51.660;5.616;2023-04-06T06:38:31;101226.34;;;5.32;83.22
64544;BME280;50936;51.660;5.616;2023-04-06T06:40:58;101230.56;;;5.38;82.81
64544;BME280;50936;51.660;5.616;2023-04-06T06:43:29;101238.28;;;5.46;82.88
64544;BME280;50936;51.660;5.616;2023-04-06T06:46:06;101247.16;;;5.48;82.60
64544;BME280;50936;51.660;5.616;2023-04-06T06:48:33;101233.81;;;5.46;83.00
64544;BME280;50936;51.660;5.616;2023-04-06T06:51:00;101239.03;;;5.49;83.00
64544;BME280;50936;51.660;5.616;2023-04-06T06:53:27;101231.19;;;5.45;84.46
64544;BME280;50936;51.660;5.616;2023-04-06T06:55:55;101231.31;;;5.42;84.23
64544;BME280;50936;51.660;5.616;2023-04-06T06:58:23;101232.91;;;5.46;84.69
64544;BME280;50936;51.660;5.616;2023-04-06T07:00:50;101228.06;;;5.55;84.85
64544;BME280;50936;51.660;5.616;2023-04-06T07:03:18;101220.09;;;5.54;84.65
64544;BME280;50936;51.660;5.616;2023-04-06T07:05:45;101225.91;;;5.64;84.49
64544;BME280;50936;51.660;5.616;2023-04-06T07:08:22;101223.06;;;5.68;84.47
64544;BME280;50936;51.660;5.616;2023-04-06T07:10:51;101210.47;;;5.70;84.23
64544;BME280;50936;51.660;5.616;2023-04-06T07:13:19;101210.41;;;5.72;84.09
64544;BME280;50936;51.660;5.616;2023-04-06T07:15:53;101210.34;;;5.73;83.96
64544;BME280;50936;51.660;5.616;2023-04-06T07:18:22;101208.31;;;5.78;83.92
64544;BME280;50936;51.660;5.616;2023-04-06T07:20:50;101206.31;;;5.84;83.65
64544;BME280;50936;51.660;5.616;2023-04-06T07:23:17;101203.56;;;5.85;83.65
64544;BME280;50936;51.660;5.616;2023-04-06T07:25:44;101203.69;;;5.82;84.59
64544;BME280;50936;51.660;5.616;2023-04-06T07:28:12;101204.41;;;5.86;84.60
64544;BME280;50936;51.660;5.616;2023-04-06T07:30:39;101205.03;;;5.92;84.47
64544;BME280;50936;51.660;5.616;2023-04-06T07:33:08;101209.38;;;5.95;84.32
64544;BME280;50936;51.660;5.616;2023-04-06T07:35:36;101211.16;;;5.96;84.63
64544;BME280;50936;51.660;5.616;2023-04-06T07:38:04;101207.28;;;6.03;84.67
64544;BME280;50936;51.660;5.616;2023-04-06T07:40:33;101199.91;;;6.08;85.22
64544;BME280;50936;51.660;5.616;2023-04-06T07:43:00;101203.22;;;6.13;84.77
64544;BME280;50936;51.660;5.616;2023-04-06T07:45:29;101199.31;;;6.21;84.97
64544;BME280;50936;51.660;5.616;2023-04-06T07:47:56;101199.84;;;6.29;84.83
64544;BME280;50936;51.660;5.616;2023-04-06T07:50:25;101202.25;;;6.35;84.36
64544;BME280;50936;51.660;5.616;2023-04-06T07:52:53;101205.47;;;6.43;84.68
64544;BME280;50936;51.660;5.616;2023-04-06T07:55:20;101215.59;;;6.55;84.25
64544;BME280;50936;51.660;5.616;2023-04-06T07:57:47;101207.22;;;6.63;83.87
64544;BME280;50936;51.660;5.616;2023-04-06T08:00:14;101204.94;;;6.73;83.40
64544;BME280;50936;51.660;5.616;2023-04-06T08:02:42;101212.69;;;6.79;83.34
64544;BME280;50936;51.660;5.616;2023-04-06T08:05:09;101208.78;;;6.86;83.35
64544;BME280;50936;51.660;5.616;2023-04-06T08:07:36;101205.81;;;6.92;83.10
64544;BME280;50936;51.660;5.616;2023-04-06T08:10:03;101201.06;;;6.98;82.82
64544;BME280;50936;51.660;5.616;2023-04-06T08:12:32;101207.75;;;7.08;82.43
64544;BME280;50936;51.660;5.616;2023-04-06T08:15:00;101213.44;;;7.19;82.19
64544;BME280;50936;51.660;5.616;2023-04-06T08:17:29;101202.31;;;7.27;81.67
64544;BME280;50936;51.660;5.616;2023-04-06T08:19:57;101211.81;;;7.34;80.51
64544;BME280;50936;51.660;5.616;2023-04-06T08:22:24;101200.44;;;7.46;78.01
64544;BME280;50936;51.660;5.616;2023-04-06T08:24:51;101206.41;;;7.53;76.15
64544;BME280;50936;51.660;5.616;2023-04-06T08:27:18;101210.19;;;7.66;74.40
64544;BME280;50936;51.660;5.616;2023-04-06T08:29:45;101207.34;;;7.69;74.59
64544;BME280;50936;51.660;5.616;2023-04-06T08:32:12;101212.41;;;7.76;73.41
64544;BME280;50936;51.660;5.616;2023-04-06T08:34:39;101212.41;;;7.76;73.79
64544;BME280;50936;51.660;5.616;2023-04-06T08:37:06;101214.47;;;7.88;72.74
64544;BME280;50936;51.660;5.616;2023-04-06T08:39:33;101220.13;;;7.82;72.64
64544;BME280;50936;51.660;5.616;2023-04-06T08:42:01;101213.69;;;7.86;72.65
64544;BME280;50936;51.660;5.616;2023-04-06T08:44:31;101216.19;;;7.89;72.36
64544;BME280;50936;51.660;5.616;2023-04-06T08:46:59;101212.78;;;7.85;71.78
64544;BME280;50936;51.660;5.616;2023-04-06T08:49:27;101209.31;;;7.83;72.17
64544;BME280;50936;51.660;5.616;2023-04-06T08:51:55;101209.22;;;7.85;72.02
64544;BME280;50936;51.660;5.616;2023-04-06T08:54:23;101212.19;;;7.80;71.92
64544;BME280;50936;51.660;5.616;2023-04-06T08:56:52;101213.56;;;7.87;72.31
64544;BME280;50936;51.660;5.616;2023-04-06T08:59:20;101214.28;;;7.91;71.39
64544;BME280;50936;51.660;5.616;2023-04-06T09:01:47;101214.63;;;7.85;71.65
64544;BME280;50936;51.660;5.616;2023-04-06T09:04:15;101214.63;;;7.85;72.19
64544;BME280;50936;51.660;5.616;2023-04-06T09:06:43;101217.94;;;7.90;72.12
64544;BME280;50936;51.660;5.616;2023-04-06T09:09:10;101226.78;;;7.92;72.17
64544;BME280;50936;51.660;5.616;2023-04-06T09:11:49;101217.59;;;7.96;71.82
64544;BME280;50936;51.660;5.616;2023-04-06T09:14:17;101226.16;;;8.04;71.77
64544;BME280;50936;51.660;5.616;2023-04-06T09:17:04;101228.59;;;8.09;72.00
64544;BME280;50936;51.660;5.616;2023-04-06T09:19:32;101223.50;;;8.20;71.42
64544;BME280;50936;51.660;5.616;2023-04-06T09:22:05;101222.16;;;8.29;70.82
64544;BME280;50936;51.660;5.616;2023-04-06T09:24:50;101218.09;;;8.38;70.26
64544;BME280;50936;51.660;5.616;2023-04-06T09:27:30;101225.06;;;8.42;70.48
64544;BME280;50936;51.660;5.616;2023-04-06T09:30:09;101221.63;;;8.56;69.87
64544;BME280;50936;51.660;5.616;2023-04-06T09:32:54;101215.56;;;8.68;68.92
64544;BME280;50936;51.660;5.616;2023-04-06T09:35:23;101225.81;;;8.77;68.50
64544;BME280;50936;51.660;5.616;2023-04-06T09:37:53;101218.03;;;8.89;68.57
64544;BME280;50936;51.660;5.616;2023-04-06T09:40:20;101215.91;;;8.94;68.21
64544;BME280;50936;51.660;5.616;2023-04-06T09:42:49;101219.41;;;8.96;68.60
64544;BME280;50936;51.660;5.616;2023-04-06T09:45:21;101228.00;;;9.02;68.87
64544;BME280;50936;51.660;5.616;2023-04-06T09:47:48;101221.66;;;9.03;69.31
64544;BME280;50936;51.660;5.616;2023-04-06T09:50:19;101213.31;;;9.08;69.36
64544;BME280;50936;51.660;5.616;2023-04-06T09:52:47;101215.47;;;9.17;69.49
64544;BME280;50936;51.660;5.616;2023-04-06T09:55:40;101221.13;;;9.29;69.83
64544;BME280;50936;51.660;5.616;2023-04-06T09:58:13;101225.00;;;9.39;70.28
64544;BME280;50936;51.660;5.616;2023-04-06T10:01:10;101215.84;;;9.57;70.15
64544;BME280;50936;51.660;5.616;2023-04-06T10:03:52;101215.97;;;9.70;70.86
64544;BME280;50936;51.660;5.616;2023-04-06T10:06:28;101211.09;;;9.77;72.17
64544;BME280;50936;51.660;5.616;2023-04-06T10:09:02;101216.09;;;9.83;72.91
64544;BME280;50936;51.660;5.616;2023-04-06T10:11:31;101214.84;;;9.89;74.34
64544;BME280;50936;51.660;5.616;2023-04-06T10:13:59;101217.13;;;9.96;74.60
64544;BME280;50936;51.660;5.616;2023-04-06T10:16:28;101227.34;;;10.06;75.52
64544;BME280;50936;51.660;5.616;2023-04-06T10:19:01;101224.75;;;10.04;75.53
64544;BME280;50936;51.660;5.616;2023-04-06T10:21:38;101228.84;;;9.95;77.01
64544;BME280;50936;51.660;5.616;2023-04-06T10:24:09;101221.41;;;9.85;79.06
64544;BME280;50936;51.660;5.616;2023-04-06T10:26:37;101226.28;;;9.78;80.28
64544;BME280;50936;51.660;5.616;2023-04-06T10:29:04;101222.81;;;9.76;81.55
64544;BME280;50936;51.660;5.616;2023-04-06T10:31:32;101231.13;;;9.73;82.89
64544;BME280;50936;51.660;5.616;2023-04-06T10:34:01;101229.53;;;9.69;84.70
64544;BME280;50936;51.660;5.616;2023-04-06T10:36:33;101234.03;;;9.54;84.37
64544;BME280;50936;51.660;5.616;2023-04-06T10:39:05;101232.78;;;9.29;86.79
64544;BME280;50936;51.660;5.616;2023-04-06T10:41:44;101227.66;;;9.09;89.46
64544;BME280;50936;51.660;5.616;2023-04-06T10:44:24;101238.34;;;8.94;93.25
64544;BME280;50936;51.660;5.616;2023-04-06T10:46:56;101232.78;;;8.81;95.56
64544;BME280;50936;51.660;5.616;2023-04-06T10:49:26;101235.38;;;8.67;97.11
64544;BME280;50936;51.660;5.616;2023-04-06T10:51:54;101228.13;;;8.52;99.62
64544;BME280;50936;51.660;5.616;2023-04-06T10:54:25;101228.47;;;8.45;100.00
64544;BME280;50936;51.660;5.616;2023-04-06T10:56:53;101232.22;;;8.43;100.00
64544;BME280;50936;51.660;5.616;2023-04-06T10:59:20;101230.28;;;8.45;100.00
64544;BME280;50936;51.660;5.616;2023-04-06T11:01:49;101225.94;;;8.42;100.00
64544;BME280;50936;51.660;5.616;2023-04-06T11:04:17;101226.25;;;8.36;100.00
64544;BME280;50936;51.660;5.616;2023-04-06T11:06:49;101220.16;;;8.33;100.00
64544;BME280;50936;51.660;5.616;2023-04-06T11:09:30;101221.19;;;8.30;100.00
64544;BME280;50936;51.660;5.616;2023-04-06T11:12:01;101229.59;;;8.24;100.00
64544;BME280;50936;51.660;5.616;2023-04-06T11:14:28;101213.84;;;8.16;100.00
64544;BME280;50936;51.660;5.616;2023-04-06T11:16:55;101209.53;;;8.14;100.00
64544;BME280;50936;51.660;5.616;2023-04-06T11:19:22;101213.22;;;8.11;100.00
64544;BME280;50936;51.660;5.616;2023-04-06T11:21:49;101221.06;;;7.98;100.00
64544;BME280;50936;51.660;5.616;2023-04-06T11:24:18;101205.44;;;7.89;100.00
64544;BME280;50936;51.660;5.616;2023-04-06T11:26:56;101213.19;;;7.78;100.00
64544;BME280;50936;51.660;5.616;2023-04-06T11:29:30;101205.53;;;7.70;100.00
64544;BME280;50936;51.660;5.616;2023-04-06T11:34:33;101197.69;;;7.65;100.00
64544;BME280;50936;51.660;5.616;2023-04-06T11:37:09;101197.16;;;7.59;100.00
64544;BME280;50936;51.660;5.616;2023-04-06T11:39:39;101206.31;;;7.55;100.00
64544;BME280;50936;51.660;5.616;2023-04-06T11:42:13;101198.34;;;7.53;100.00
64544;BME280;50936;51.660;5.616;2023-04-06T11:44:55;101191.53;;;7.46;100.00
64544;BME280;50936;51.660;5.616;2023-04-06T11:47:34;101186.31;;;7.43;100.00
64544;BME280;50936;51.660;5.616;2023-04-06T11:50:11;101189.91;;;7.42;100.00
64544;BME280;50936;51.660;5.616;2023-04-06T11:52:41;101193.72;;;7.38;100.00
64544;BME280;50936;51.660;5.616;2023-04-06T11:55:17;101194.63;;;7.38;100.00
64544;BME280;50936;51.660;5.616;2023-04-06T11:57:45;101184.88;;;7.36;100.00
64544;BME280;50936;51.660;5.616;2023-04-06T12:00:12;101184.88;;;7.36;100.00
64544;BME280;50936;51.660;5.616;2023-04-06T12:02:45;101189.47;;;7.33;100.00
64544;BME280;50936;51.660;5.616;2023-04-06T12:05:14;101179.63;;;7.32;100.00
64544;BME280;50936;51.660;5.616;2023-04-06T12:07:41;101184.88;;;7.36;100.00
64544;BME280;50936;51.660;5.616;2023-04-06T12:10:09;101172.22;;;7.38;100.00
64544;BME280;50936;51.660;5.616;2023-04-06T12:12:36;101165.66;;;7.43;100.00
64544;BME280;50936;51.660;5.616;2023-04-06T12:15:03;101167.16;;;7.49;100.00
64544;BME280;50936;51.660;5.616;2023-04-06T12:17:31;101165.91;;;7.56;100.00
64544;BME280;50936;51.660;5.616;2023-04-06T12:19:58;101166.63;;;7.60;100.00
64544;BME280;50936;51.660;5.616;2023-04-06T12:22:43;101163.69;;;7.64;100.00
64544;BME280;50936;51.660;5.616;2023-04-06T12:25:10;101165.28;;;7.68;100.00
64544;BME280;50936;51.660;5.616;2023-04-06T12:27:37;101165.03;;;7.73;100.00
64544;BME280;50936;51.660;5.616;2023-04-06T12:30:04;101159.25;;;7.81;100.00
64544;BME280;50936;51.660;5.616;2023-04-06T12:32:32;101162.72;;;7.83;100.00
64544;BME280;50936;51.660;5.616;2023-04-06T12:34:59;101155.59;;;7.82;100.00
64544;BME280;50936;51.660;5.616;2023-04-06T12:37:26;101162.72;;;7.83;100.00
64544;BME280;50936;51.660;5.616;2023-04-06T12:39:54;101153.88;;;7.81;100.00
64544;BME280;50936;51.660;5.616;2023-04-06T12:42:21;101154.50;;;7.86;100.00
64544;BME280;50936;51.660;5.616;2023-04-06T12:44:49;101155.44;;;7.85;100.00
64544;BME280;50936;51.660;5.616;2023-04-06T12:47:15;101146.59;;;7.83;100.00
64544;BME280;50936;51.660;5.616;2023-04-06T12:49:43;101152.31;;;7.77;100.00
64544;BME280;50936;51.660;5.616;2023-04-06T12:52:10;101141.56;;;7.77;100.00
64544;BME280;50936;51.660;5.616;2023-04-06T12:54:41;101139.97;;;7.72;100.00
64544;BME280;50936;51.660;5.616;2023-04-06T12:57:08;101132.56;;;7.60;100.00
64544;BME280;50936;51.660;5.616;2023-04-06T12:59:35;101138.41;;;7.51;100.00
64544;BME280;50936;51.660;5.616;2023-04-06T13:02:04;101119.03;;;7.44;100.00
64544;BME280;50936;51.660;5.616;2023-04-06T13:04:32;101132.63;;;7.41;100.00
64544;BME280;50936;51.660;5.616;2023-04-06T13:06:59;101138.00;;;7.41;100.00
64544;BME280;50936;51.660;5.616;2023-04-06T13:09:26;101132.69;;;7.40;100.00
64544;BME280;50936;51.660;5.616;2023-04-06T13:11:53;101123.94;;;7.36;100.00
64544;BME280;50936;51.660;5.616;2023-04-06T13:14:20;101121.94;;;7.40;100.00
64544;BME280;50936;51.660;5.616;2023-04-06T13:16:47;101126.13;;;7.45;100.00